createdAt,value
2019-02-02T00:00:51.364Z,111.28
2019-02-02T00:01:30.306Z,108.52
2019-02-02T00:02:08.154Z,108.72
2019-02-02T00:02:41.256Z,108.42
2019-02-02T00:03:14.273Z,113.12
2019-02-02T00:03:47.422Z,115.70
2019-02-02T00:04:21.372Z,114.85
2019-02-02T00:04:54.426Z,110.92
2019-02-02T00:05:27.412Z,111.75
2019-02-02T00:06:00.545Z,114.17
2019-02-02T00:06:34.670Z,109.63
2019-02-02T00:07:07.694Z,110.28
2019-02-02T00:07:40.702Z,108.97
2019-02-02T00:08:13.860Z,117.75
2019-02-02T00:08:46.875Z,113.62
2019-02-02T00:09:19.936Z,114.12
2019-02-02T00:09:53.024Z,110.10
2019-02-02T00:10:26.131Z,107.90
2019-02-02T00:10:59.216Z,98.20
2019-02-02T00:11:32.270Z,99.45
2019-02-02T00:12:05.278Z,117.97
2019-02-02T00:12:38.242Z,117.90
2019-02-02T00:13:11.248Z,110.12
2019-02-02T00:13:44.310Z,107.67
2019-02-02T00:14:17.300Z,104.92
2019-02-02T00:14:50.275Z,113.32
2019-02-02T00:15:23.360Z,114.40
2019-02-02T00:15:56.498Z,116.25
2019-02-02T00:16:29.576Z,121.20
2019-02-02T00:17:02.702Z,104.92
2019-02-02T00:17:35.826Z,111.45
2019-02-02T00:18:08.970Z,123.00
2019-02-02T00:18:42.095Z,110.10
2019-02-02T00:19:15.254Z,108.30
2019-02-02T00:19:48.202Z,114.80
2019-02-02T00:20:21.187Z,123.00
2019-02-02T00:20:54.279Z,113.83
2019-02-02T00:21:27.396Z,119.30
2019-02-02T00:22:00.421Z,117.08
2019-02-02T00:22:34.156Z,116.08
2019-02-02T00:23:07.287Z,109.87
2019-02-02T00:23:40.321Z,117.65
2019-02-02T00:24:13.295Z,112.28
2019-02-02T00:24:46.308Z,109.55
2019-02-02T00:25:19.451Z,113.70
2019-02-02T00:25:52.472Z,117.35
2019-02-02T00:26:25.520Z,115.40
2019-02-02T00:26:58.636Z,114.72
2019-02-02T00:27:41.019Z,121.47
2019-02-02T00:28:06.597Z,115.15
2019-02-02T00:28:39.598Z,115.82
2019-02-02T00:29:12.618Z,117.35
2019-02-02T00:29:45.601Z,125.27
2019-02-02T00:30:18.863Z,117.57
2019-02-02T00:30:51.878Z,114.85
2019-02-02T00:31:25.033Z,123.18
2019-02-02T00:31:58.144Z,110.25
2019-02-02T00:32:31.040Z,116.97
2019-02-02T00:33:04.594Z,123.65
2019-02-02T00:33:37.610Z,114.90
2019-02-02T00:34:10.697Z,114.85
2019-02-02T00:34:43.770Z,111.12
2019-02-02T00:35:16.862Z,118.42
2019-02-02T00:35:49.853Z,116.57
2019-02-02T00:36:22.990Z,119.70
2019-02-02T00:36:59.008Z,106.30
2019-02-02T00:37:30.961Z,115.95
2019-02-02T00:38:04.408Z,116.88
2019-02-02T00:38:37.454Z,114.10
2019-02-02T00:39:10.602Z,108.12
2019-02-02T00:39:43.627Z,128.20
2019-02-02T00:40:17.120Z,107.00
2019-02-02T00:40:56.094Z,113.52
2019-02-02T00:41:29.517Z,114.70
2019-02-02T00:42:02.578Z,109.07
2019-02-02T00:42:35.694Z,114.37
2019-02-02T00:43:08.858Z,122.80
2019-02-02T00:43:41.907Z,114.37
2019-02-02T00:44:15.872Z,117.25
2019-02-02T00:45:00.669Z,117.50
2019-02-02T00:45:33.668Z,114.70
2019-02-02T00:46:07.014Z,119.75
2019-02-02T00:46:39.538Z,109.85
2019-02-02T00:47:12.544Z,123.82
2019-02-02T00:47:46.007Z,116.42
2019-02-02T00:48:19.014Z,115.92
2019-02-02T00:48:51.938Z,101.15
2019-02-02T00:49:25.022Z,123.75
2019-02-02T00:49:57.934Z,120.28
2019-02-02T00:50:30.950Z,120.47
2019-02-02T00:51:04.140Z,103.17
2019-02-02T00:51:37.163Z,114.72
2019-02-02T00:52:10.321Z,117.42
2019-02-02T00:52:43.472Z,109.27
2019-02-02T00:53:16.484Z,101.35
2019-02-02T00:53:49.523Z,113.25
2019-02-02T00:54:22.520Z,109.40
2019-02-02T00:54:55.540Z,110.75
2019-02-02T00:55:28.659Z,118.42
2019-02-02T00:56:01.684Z,117.72
2019-02-02T00:56:34.861Z,116.60
2019-02-02T00:57:07.867Z,111.30
2019-02-02T00:57:52.692Z,108.27
2019-02-02T00:58:15.926Z,117.15
2019-02-02T00:58:49.014Z,114.77
2019-02-02T00:59:22.060Z,113.88
2019-02-02T00:59:55.860Z,125.12
2019-02-02T01:00:28.999Z,123.62
2019-02-02T01:01:02.158Z,125.33
2019-02-02T01:01:36.163Z,120.72
2019-02-02T01:02:09.382Z,117.95
2019-02-02T01:02:42.579Z,133.03
2019-02-02T01:03:15.609Z,109.35
2019-02-02T01:03:48.653Z,115.75
2019-02-02T01:04:21.720Z,102.95
2019-02-02T01:04:54.735Z,97.88
2019-02-02T01:05:27.777Z,129.97
2019-02-02T01:06:04.844Z,122.98
2019-02-02T01:06:36.927Z,128.78
2019-02-02T01:07:10.086Z,119.37
2019-02-02T01:07:43.658Z,115.82
2019-02-02T01:08:16.701Z,121.20
2019-02-02T01:08:49.754Z,118.40
2019-02-02T01:09:24.567Z,116.15
2019-02-02T01:09:57.681Z,118.10
2019-02-02T01:10:32.560Z,112.10
2019-02-02T01:11:06.377Z,124.72
2019-02-02T01:11:39.425Z,119.65
2019-02-02T01:12:12.659Z,111.92
2019-02-02T01:12:45.799Z,123.02
2019-02-02T01:13:18.913Z,113.95
2019-02-02T01:13:51.966Z,126.25
2019-02-02T01:14:24.954Z,109.17
2019-02-02T01:14:57.991Z,115.88
2019-02-02T01:15:31.247Z,114.72
2019-02-02T01:16:05.741Z,114.10
2019-02-02T01:16:38.937Z,121.35
2019-02-02T01:17:11.979Z,103.40
2019-02-02T01:17:45.005Z,112.28
2019-02-02T01:18:18.051Z,108.15
2019-02-02T01:18:50.935Z,116.57
2019-02-02T01:19:24.073Z,125.47
2019-02-02T01:19:57.085Z,115.90
2019-02-02T01:20:30.391Z,115.70
2019-02-02T01:21:03.348Z,102.82
2019-02-02T01:21:36.436Z,117.22
2019-02-02T01:22:09.578Z,117.72
2019-02-02T01:22:42.809Z,105.32
2019-02-02T01:23:17.489Z,114.20
2019-02-02T01:23:50.627Z,118.13
2019-02-02T01:24:23.750Z,104.65
2019-02-02T01:24:56.883Z,120.28
2019-02-02T01:25:29.983Z,108.03
2019-02-02T01:26:03.139Z,108.03
2019-02-02T01:26:36.271Z,107.50
2019-02-02T01:27:10.382Z,108.97
2019-02-02T01:27:43.543Z,117.53
2019-02-02T01:28:16.577Z,115.90
2019-02-02T01:28:49.669Z,107.75
2019-02-02T01:29:22.694Z,105.15
2019-02-02T01:29:55.804Z,112.28
2019-02-02T01:30:28.973Z,110.60
2019-02-02T01:31:02.325Z,112.75
2019-02-02T01:31:35.483Z,104.95
2019-02-02T01:32:08.847Z,113.95
2019-02-02T01:32:42.003Z,110.65
2019-02-02T01:33:15.108Z,101.78
2019-02-02T01:33:48.193Z,109.63
2019-02-02T01:34:21.117Z,103.55
2019-02-02T01:34:53.929Z,101.45
2019-02-02T01:35:27.007Z,110.42
2019-02-02T01:36:00.091Z,107.52
2019-02-02T01:36:33.077Z,113.97
2019-02-02T01:37:06.010Z,109.80
2019-02-02T01:37:39.110Z,105.37
2019-02-02T01:38:12.189Z,112.60
2019-02-02T01:38:45.179Z,100.42
2019-02-02T01:39:18.147Z,112.37
2019-02-02T01:39:51.162Z,104.35
2019-02-02T01:40:24.411Z,101.05
2019-02-02T01:40:58.454Z,95.65
2019-02-02T01:41:31.511Z,103.32
2019-02-02T01:42:04.558Z,112.25
2019-02-02T01:42:38.735Z,113.42
2019-02-02T01:43:11.758Z,100.58
2019-02-02T01:43:44.822Z,107.10
2019-02-02T01:44:17.962Z,103.05
2019-02-02T01:44:51.012Z,106.03
2019-02-02T01:45:24.293Z,95.92
2019-02-02T01:45:58.497Z,93.72
2019-02-02T01:46:31.445Z,99.45
2019-02-02T01:47:04.505Z,107.97
2019-02-02T01:47:37.595Z,100.05
2019-02-02T01:48:10.627Z,96.40
2019-02-02T01:48:43.819Z,88.25
2019-02-02T01:49:16.905Z,102.80
2019-02-02T01:49:50.289Z,95.80
2019-02-02T01:50:23.903Z,85.42
2019-02-02T01:50:57.071Z,100.92
2019-02-02T01:51:30.187Z,107.32
2019-02-02T01:52:03.481Z,86.37
2019-02-02T01:52:36.538Z,92.05
2019-02-02T01:53:09.683Z,105.52
2019-02-02T01:53:42.741Z,104.80
2019-02-02T01:54:15.675Z,98.65
2019-02-02T01:54:48.595Z,104.50
2019-02-02T01:55:21.902Z,97.60
2019-02-02T01:55:54.835Z,99.90
2019-02-02T01:56:27.853Z,101.40
2019-02-02T01:57:01.137Z,107.95
2019-02-02T01:57:34.189Z,97.57
2019-02-02T01:58:16.349Z,100.50
2019-02-02T01:58:42.365Z,94.95
2019-02-02T01:59:15.458Z,96.40
2019-02-02T01:59:49.540Z,89.28
2019-02-02T02:00:25.715Z,99.90
2019-02-02T02:00:58.851Z,103.25
2019-02-02T02:01:31.929Z,105.40
2019-02-02T02:02:04.955Z,103.30
2019-02-02T02:02:37.962Z,97.45
2019-02-02T02:03:11.006Z,103.90
2019-02-02T02:03:43.893Z,102.10
2019-02-02T02:04:17.229Z,102.15
2019-02-02T02:04:50.314Z,98.25
2019-02-02T02:05:23.498Z,103.22
2019-02-02T02:05:56.466Z,105.17
2019-02-02T02:06:29.499Z,95.67
2019-02-02T02:07:02.604Z,94.07
2019-02-02T02:07:35.615Z,106.97
2019-02-02T02:08:08.693Z,97.80
2019-02-02T02:08:43.282Z,96.15
2019-02-02T02:09:16.204Z,102.72
2019-02-02T02:09:49.339Z,92.65
2019-02-02T02:10:22.481Z,99.28
2019-02-02T02:10:58.177Z,102.92
2019-02-02T02:11:30.411Z,103.12
2019-02-02T02:12:03.499Z,103.58
2019-02-02T02:12:36.597Z,101.15
2019-02-02T02:13:09.657Z,103.32
2019-02-02T02:13:42.710Z,91.50
2019-02-02T02:14:16.526Z,103.38
2019-02-02T02:14:49.427Z,98.25
2019-02-02T02:15:23.564Z,91.90
2019-02-02T02:15:56.646Z,98.65
2019-02-02T02:16:29.944Z,99.80
2019-02-02T02:17:03.029Z,106.27
2019-02-02T02:17:36.068Z,89.28
2019-02-02T02:18:09.045Z,105.27
2019-02-02T02:18:42.094Z,95.05
2019-02-02T02:19:15.234Z,84.60
2019-02-02T02:19:48.394Z,97.08
2019-02-02T02:20:24.299Z,102.70
2019-02-02T02:20:56.523Z,94.97
2019-02-02T02:21:29.539Z,107.55
2019-02-02T02:22:02.694Z,92.50
2019-02-02T02:22:41.206Z,99.30
2019-02-02T02:23:11.138Z,89.90
2019-02-02T02:23:44.237Z,92.72
2019-02-02T02:24:17.264Z,91.40
2019-02-02T02:24:50.185Z,89.40
2019-02-02T02:25:23.325Z,94.28
2019-02-02T02:25:56.421Z,102.12
2019-02-02T02:26:29.418Z,97.67
2019-02-02T02:27:02.612Z,96.53
2019-02-02T02:27:35.641Z,103.55
2019-02-02T02:28:08.752Z,94.85
2019-02-02T02:28:41.804Z,92.72
2019-02-02T02:29:14.803Z,95.10
2019-02-02T02:29:47.766Z,86.97
2019-02-02T02:30:22.105Z,88.40
2019-02-02T02:30:55.148Z,92.78
2019-02-02T02:31:28.164Z,81.00
2019-02-02T02:32:01.192Z,92.85
2019-02-02T02:32:34.309Z,85.47
2019-02-02T02:33:07.364Z,91.65
2019-02-02T02:33:40.358Z,89.77
2019-02-02T02:34:13.500Z,94.00
2019-02-02T02:34:46.583Z,86.08
2019-02-02T02:35:20.369Z,88.58
2019-02-02T02:35:53.329Z,91.02
2019-02-02T02:36:26.410Z,88.85
2019-02-02T02:36:59.387Z,79.87
2019-02-02T02:37:32.290Z,94.00
2019-02-02T02:38:05.264Z,92.10
2019-02-02T02:38:38.321Z,87.53
2019-02-02T02:39:11.295Z,82.53
2019-02-02T02:39:44.339Z,92.05
2019-02-02T02:40:20.019Z,98.12
2019-02-02T02:40:53.090Z,87.62
2019-02-02T02:41:26.088Z,99.28
2019-02-02T02:41:59.108Z,101.22
2019-02-02T02:42:32.083Z,100.25
2019-02-02T02:43:05.121Z,94.77
2019-02-02T02:43:38.128Z,99.67
2019-02-02T02:44:11.198Z,94.55
2019-02-02T02:44:44.078Z,90.38
2019-02-02T02:45:17.347Z,88.67
2019-02-02T02:45:50.350Z,92.57
2019-02-02T02:46:23.403Z,89.20
2019-02-02T02:46:56.289Z,91.32
2019-02-02T02:47:29.226Z,88.72
2019-02-02T02:48:02.343Z,96.82
2019-02-02T02:48:35.385Z,83.12
2019-02-02T02:49:08.390Z,88.85
2019-02-02T02:49:41.290Z,90.92
2019-02-02T02:50:16.321Z,96.80
2019-02-02T02:50:49.487Z,89.52
2019-02-02T02:51:22.369Z,94.28
2019-02-02T02:51:55.416Z,95.38
2019-02-02T02:52:28.473Z,86.67
2019-02-02T02:53:01.542Z,90.57
2019-02-02T02:53:34.548Z,95.67
2019-02-02T02:54:07.707Z,80.65
2019-02-02T02:54:40.670Z,85.03
2019-02-02T02:55:14.891Z,84.17
2019-02-02T02:55:47.782Z,89.35
2019-02-02T02:56:22.343Z,87.82
2019-02-02T02:56:55.116Z,97.78
2019-02-02T02:57:28.156Z,83.25
2019-02-02T02:58:01.170Z,91.47
2019-02-02T02:58:41.685Z,83.50
2019-02-02T02:59:09.995Z,83.58
2019-02-02T02:59:43.027Z,97.50
2019-02-02T03:00:19.686Z,91.37
2019-02-02T03:00:52.841Z,89.75
2019-02-02T03:01:25.844Z,103.12
2019-02-02T03:01:58.792Z,96.78
2019-02-02T03:02:31.787Z,84.35
2019-02-02T03:03:04.906Z,89.03
2019-02-02T03:03:37.880Z,91.45
2019-02-02T03:04:11.113Z,90.53
2019-02-02T03:04:44.102Z,100.07
2019-02-02T03:05:18.964Z,86.12
2019-02-02T03:05:51.964Z,86.25
2019-02-02T03:06:25.005Z,86.35
2019-02-02T03:06:57.994Z,88.07
2019-02-02T03:07:32.670Z,96.47
2019-02-02T03:08:05.668Z,98.12
2019-02-02T03:08:39.129Z,103.90
2019-02-02T03:09:12.164Z,100.72
2019-02-02T03:09:45.214Z,96.67
2019-02-02T03:10:19.851Z,100.95
2019-02-02T03:10:52.928Z,91.10
2019-02-02T03:11:25.838Z,86.57
2019-02-02T03:11:58.865Z,97.37
2019-02-02T03:12:31.886Z,101.27
2019-02-02T03:13:05.176Z,104.10
2019-02-02T03:13:38.303Z,103.15
2019-02-02T03:14:11.311Z,103.38
2019-02-02T03:14:44.208Z,96.45
2019-02-02T03:15:17.628Z,103.25
2019-02-02T03:15:50.758Z,102.82
2019-02-02T03:16:23.792Z,102.55
2019-02-02T03:16:56.882Z,96.65
2019-02-02T03:17:30.043Z,102.40
2019-02-02T03:18:03.154Z,103.92
2019-02-02T03:18:36.316Z,102.15
2019-02-02T03:19:09.438Z,89.00
2019-02-02T03:19:42.492Z,96.53
2019-02-02T03:20:15.616Z,89.50
2019-02-02T03:20:48.538Z,94.77
2019-02-02T03:21:21.627Z,76.50
2019-02-02T03:21:54.612Z,99.37
2019-02-02T03:22:27.485Z,86.87
2019-02-02T03:23:00.595Z,96.85
2019-02-02T03:23:33.578Z,98.70
2019-02-02T03:24:06.747Z,95.65
2019-02-02T03:24:39.741Z,94.52
2019-02-02T03:25:16.153Z,97.92
2019-02-02T03:25:50.157Z,91.35
2019-02-02T03:26:23.270Z,99.30
2019-02-02T03:26:57.203Z,95.60
2019-02-02T03:27:31.208Z,89.15
2019-02-02T03:28:04.294Z,91.92
2019-02-02T03:28:37.508Z,98.58
2019-02-02T03:29:10.504Z,108.72
2019-02-02T03:29:43.774Z,103.80
2019-02-02T03:30:18.300Z,104.92
2019-02-02T03:30:51.533Z,107.03
2019-02-02T03:31:24.630Z,107.85
2019-02-02T03:31:57.696Z,103.75
2019-02-02T03:32:30.798Z,111.10
2019-02-02T03:33:03.739Z,94.92
2019-02-02T03:33:37.066Z,94.55
2019-02-02T03:34:09.998Z,99.77
2019-02-02T03:34:42.980Z,100.55
2019-02-02T03:35:18.576Z,88.90
2019-02-02T03:35:51.650Z,97.88
2019-02-02T03:36:24.719Z,91.57
2019-02-02T03:36:57.718Z,102.32
2019-02-02T03:37:30.776Z,105.07
2019-02-02T03:38:03.876Z,95.55
2019-02-02T03:38:38.441Z,93.35
2019-02-02T03:39:11.609Z,83.50
2019-02-02T03:39:44.656Z,84.87
2019-02-02T03:40:19.850Z,100.47
2019-02-02T03:40:52.860Z,92.00
2019-02-02T03:41:25.842Z,82.05
2019-02-02T03:41:58.862Z,82.78
2019-02-02T03:42:31.855Z,84.45
2019-02-02T03:43:05.034Z,85.45
2019-02-02T03:43:37.991Z,91.80
2019-02-02T03:44:11.011Z,89.72
2019-02-02T03:44:44.005Z,70.87
2019-02-02T03:45:19.771Z,96.00
2019-02-02T03:45:52.918Z,96.15
2019-02-02T03:46:26.206Z,90.70
2019-02-02T03:46:59.367Z,82.67
2019-02-02T03:47:32.440Z,94.25
2019-02-02T03:48:05.524Z,83.87
2019-02-02T03:48:38.566Z,83.33
2019-02-02T03:49:13.205Z,95.28
2019-02-02T03:49:46.188Z,94.15
2019-02-02T03:50:19.596Z,83.70
2019-02-02T03:50:52.760Z,91.95
2019-02-02T03:51:25.799Z,86.67
2019-02-02T03:51:58.884Z,86.53
2019-02-02T03:52:32.519Z,98.90
2019-02-02T03:53:05.710Z,93.37
2019-02-02T03:53:41.234Z,87.47
2019-02-02T03:54:13.856Z,90.95
2019-02-02T03:54:46.961Z,103.45
2019-02-02T03:55:20.024Z,89.65
2019-02-02T03:55:54.744Z,105.72
2019-02-02T03:56:27.831Z,91.02
2019-02-02T03:57:01.040Z,99.72
2019-02-02T03:57:34.177Z,95.07
2019-02-02T03:58:07.238Z,95.00
2019-02-02T03:58:40.398Z,98.07
2019-02-02T03:59:13.335Z,109.50
2019-02-02T03:59:46.509Z,99.65
2019-02-02T04:00:20.596Z,98.55
2019-02-02T04:00:53.654Z,97.97
2019-02-02T04:01:29.870Z,101.97
2019-02-02T04:02:01.921Z,95.80
2019-02-02T04:02:34.907Z,102.38
2019-02-02T04:03:07.990Z,103.40
2019-02-02T04:03:41.048Z,96.42
2019-02-02T04:04:14.271Z,99.25
2019-02-02T04:04:47.123Z,94.62
2019-02-02T04:05:23.819Z,104.12
2019-02-02T04:05:56.898Z,96.17
2019-02-02T04:06:30.137Z,97.70
2019-02-02T04:07:03.437Z,98.70
2019-02-02T04:07:36.551Z,100.55
2019-02-02T04:08:09.808Z,103.78
2019-02-02T04:08:42.853Z,109.67
2019-02-02T04:09:15.837Z,105.10
2019-02-02T04:09:48.960Z,94.70
2019-02-02T04:10:22.051Z,101.05
2019-02-02T04:10:55.093Z,94.95
2019-02-02T04:11:28.172Z,96.02
2019-02-02T04:12:01.255Z,97.33
2019-02-02T04:12:34.243Z,101.12
2019-02-02T04:13:07.217Z,96.78
2019-02-02T04:13:40.223Z,103.65
2019-02-02T04:14:13.319Z,104.32
2019-02-02T04:14:46.301Z,104.67
2019-02-02T04:15:19.661Z,100.80
2019-02-02T04:15:52.638Z,99.65
2019-02-02T04:16:25.691Z,97.80
2019-02-02T04:16:58.595Z,100.30
2019-02-02T04:17:33.079Z,97.25
2019-02-02T04:18:06.171Z,101.00
2019-02-02T04:18:39.302Z,103.32
2019-02-02T04:19:12.209Z,105.12
2019-02-02T04:19:45.164Z,97.45
2019-02-02T04:20:20.221Z,94.47
2019-02-02T04:20:53.277Z,100.90
2019-02-02T04:21:26.371Z,106.37
2019-02-02T04:21:59.557Z,99.28
2019-02-02T04:22:35.593Z,107.83
2019-02-02T04:23:07.529Z,100.38
2019-02-02T04:23:40.317Z,100.33
2019-02-02T04:24:13.367Z,106.70
2019-02-02T04:24:46.378Z,96.95
2019-02-02T04:25:20.741Z,91.65
2019-02-02T04:25:53.835Z,105.20
2019-02-02T04:26:26.919Z,107.45
2019-02-02T04:26:59.949Z,98.65
2019-02-02T04:27:33.049Z,105.92
2019-02-02T04:28:06.048Z,103.62
2019-02-02T04:28:39.083Z,107.78
2019-02-02T04:29:17.889Z,105.67
2019-02-02T04:29:47.319Z,101.67
2019-02-02T04:30:24.987Z,96.95
2019-02-02T04:30:58.137Z,95.20
2019-02-02T04:31:31.153Z,103.70
2019-02-02T04:32:04.205Z,102.27
2019-02-02T04:32:37.190Z,103.10
2019-02-02T04:33:10.316Z,108.00
2019-02-02T04:33:43.309Z,112.47
2019-02-02T04:34:16.360Z,105.55
2019-02-02T04:34:49.349Z,103.70
2019-02-02T04:35:22.622Z,108.55
2019-02-02T04:35:55.449Z,100.25
2019-02-02T04:36:28.681Z,102.97
2019-02-02T04:37:01.601Z,98.12
2019-02-02T04:37:34.739Z,107.67
2019-02-02T04:38:07.744Z,106.78
2019-02-02T04:38:40.680Z,100.18
2019-02-02T04:39:13.583Z,95.12
2019-02-02T04:39:46.507Z,98.07
2019-02-02T04:40:19.531Z,105.03
2019-02-02T04:40:52.444Z,100.92
2019-02-02T04:41:25.247Z,112.05
2019-02-02T04:41:58.408Z,105.97
2019-02-02T04:42:31.312Z,104.53
2019-02-02T04:43:04.415Z,103.58
2019-02-02T04:43:37.362Z,108.27
2019-02-02T04:44:10.335Z,106.78
2019-02-02T04:44:43.411Z,91.17
2019-02-02T04:45:16.583Z,102.75
2019-02-02T04:45:49.599Z,103.85
2019-02-02T04:46:22.715Z,97.72
2019-02-02T04:46:55.709Z,99.17
2019-02-02T04:47:28.768Z,103.27
2019-02-02T04:48:01.755Z,102.75
2019-02-02T04:48:34.774Z,107.37
2019-02-02T04:49:08.043Z,95.10
2019-02-02T04:49:41.231Z,92.75
2019-02-02T04:50:15.535Z,103.20
2019-02-02T04:50:48.605Z,103.15
2019-02-02T04:51:21.668Z,100.07
2019-02-02T04:51:54.715Z,94.22
2019-02-02T04:52:27.775Z,107.25
2019-02-02T04:53:00.773Z,99.97
2019-02-02T04:53:33.617Z,98.70
2019-02-02T04:54:06.673Z,105.50
2019-02-02T04:54:39.721Z,100.95
2019-02-02T04:55:14.915Z,102.15
2019-02-02T04:55:47.957Z,92.95
2019-02-02T04:56:21.235Z,97.57
2019-02-02T04:56:54.086Z,107.35
2019-02-02T04:57:26.985Z,101.40
2019-02-02T04:57:59.901Z,103.55
2019-02-02T04:58:32.771Z,104.20
2019-02-02T04:59:05.823Z,102.87
2019-02-02T04:59:40.483Z,94.17
2019-02-02T05:00:20.446Z,99.10
2019-02-02T05:00:53.559Z,100.25
2019-02-02T05:01:26.612Z,105.47
2019-02-02T05:01:59.710Z,104.87
2019-02-02T05:02:32.840Z,105.60
2019-02-02T05:03:05.873Z,96.40
2019-02-02T05:03:38.968Z,91.17
2019-02-02T05:04:11.895Z,87.88
2019-02-02T05:04:44.909Z,108.97
2019-02-02T05:05:19.144Z,108.07
2019-02-02T05:05:52.270Z,98.50
2019-02-02T05:06:25.311Z,103.02
2019-02-02T05:06:58.412Z,104.15
2019-02-02T05:07:32.239Z,100.05
2019-02-02T05:08:05.374Z,111.28
2019-02-02T05:08:39.504Z,87.47
2019-02-02T05:09:18.770Z,102.30
2019-02-02T05:09:51.946Z,106.87
2019-02-02T05:10:25.068Z,103.97
2019-02-02T05:10:58.078Z,94.07
2019-02-02T05:11:31.112Z,107.75
2019-02-02T05:12:04.258Z,105.80
2019-02-02T05:12:37.300Z,102.38
2019-02-02T05:13:10.323Z,100.90
2019-02-02T05:13:43.230Z,103.47
2019-02-02T05:14:16.290Z,104.47
2019-02-02T05:14:49.314Z,97.33
2019-02-02T05:15:22.317Z,94.62
2019-02-02T05:15:56.574Z,104.20
2019-02-02T05:16:29.666Z,97.80
2019-02-02T05:17:02.680Z,105.35
2019-02-02T05:17:35.612Z,110.85
2019-02-02T05:18:08.641Z,96.12
2019-02-02T05:18:41.674Z,94.50
2019-02-02T05:19:14.710Z,102.87
2019-02-02T05:19:48.300Z,102.72
2019-02-02T05:20:21.357Z,103.80
2019-02-02T05:20:54.521Z,97.47
2019-02-02T05:21:27.636Z,108.85
2019-02-02T05:22:00.658Z,93.00
2019-02-02T05:22:33.620Z,101.30
2019-02-02T05:23:06.705Z,95.75
2019-02-02T05:23:40.711Z,97.80
2019-02-02T05:24:13.631Z,99.03
2019-02-02T05:24:46.628Z,92.22
2019-02-02T05:25:19.628Z,101.78
2019-02-02T05:25:52.662Z,98.00
2019-02-02T05:26:25.654Z,92.95
2019-02-02T05:26:58.696Z,101.70
2019-02-02T05:27:31.606Z,94.85
2019-02-02T05:28:04.810Z,97.75
2019-02-02T05:28:38.126Z,98.62
2019-02-02T05:29:11.130Z,104.87
2019-02-02T05:29:44.126Z,93.00
2019-02-02T05:30:21.812Z,103.53
2019-02-02T05:30:54.707Z,104.23
2019-02-02T05:31:27.732Z,95.77
2019-02-02T05:32:00.682Z,105.87
2019-02-02T05:32:33.584Z,96.60
2019-02-02T05:33:06.591Z,99.58
2019-02-02T05:33:39.478Z,108.32
2019-02-02T05:34:12.500Z,101.30
2019-02-02T05:34:45.554Z,105.63
2019-02-02T05:35:18.602Z,99.85
2019-02-02T05:35:51.654Z,101.87
2019-02-02T05:36:24.690Z,108.40
2019-02-02T05:36:57.760Z,101.10
2019-02-02T05:37:30.904Z,90.17
2019-02-02T05:38:04.069Z,94.10
2019-02-02T05:38:36.976Z,101.55
2019-02-02T05:39:10.116Z,97.80
2019-02-02T05:39:43.236Z,100.82
2019-02-02T05:40:17.346Z,97.80
2019-02-02T05:40:50.468Z,103.35
2019-02-02T05:41:23.500Z,101.02
2019-02-02T05:41:56.546Z,99.60
2019-02-02T05:42:29.375Z,96.17
2019-02-02T05:43:03.750Z,101.58
2019-02-02T05:43:36.761Z,103.67
2019-02-02T05:44:11.344Z,100.60
2019-02-02T05:44:44.261Z,101.80
2019-02-02T05:45:18.974Z,97.60
2019-02-02T05:45:52.988Z,102.75
2019-02-02T05:46:26.029Z,103.92
2019-02-02T05:46:59.120Z,94.80
2019-02-02T05:47:32.175Z,97.47
2019-02-02T05:48:05.186Z,98.60
2019-02-02T05:48:38.258Z,107.05
2019-02-02T05:49:11.266Z,107.03
2019-02-02T05:49:44.162Z,89.85
2019-02-02T05:50:19.825Z,105.30
2019-02-02T05:50:52.909Z,108.55
2019-02-02T05:51:25.934Z,100.82
2019-02-02T05:51:58.961Z,96.50
2019-02-02T05:52:32.090Z,110.30
2019-02-02T05:53:05.148Z,103.87
2019-02-02T05:53:38.204Z,98.12
2019-02-02T05:54:11.349Z,93.65
2019-02-02T05:54:48.488Z,99.90
2019-02-02T05:55:22.096Z,98.52
2019-02-02T05:55:55.095Z,106.00
2019-02-02T05:56:28.302Z,100.42
2019-02-02T05:57:01.322Z,105.52
2019-02-02T05:57:34.431Z,99.80
2019-02-02T05:58:08.428Z,102.15
2019-02-02T05:58:41.302Z,114.30
2019-02-02T05:59:14.402Z,109.83
2019-02-02T05:59:53.018Z,100.18
2019-02-02T06:00:47.388Z,100.78
2019-02-02T06:01:20.568Z,110.63
2019-02-02T06:01:55.301Z,94.83
2019-02-02T06:02:28.360Z,100.50
2019-02-02T06:03:01.525Z,101.65
2019-02-02T06:03:34.648Z,102.10
2019-02-02T06:04:07.757Z,104.65
2019-02-02T06:04:42.351Z,103.85
2019-02-02T06:05:15.466Z,99.28
2019-02-02T06:05:48.416Z,100.07
2019-02-02T06:06:23.008Z,106.47
2019-02-02T06:06:56.198Z,100.95
2019-02-02T06:07:29.321Z,104.27
2019-02-02T06:08:02.372Z,109.32
2019-02-02T06:08:35.479Z,104.50
2019-02-02T06:09:08.509Z,104.07
2019-02-02T06:09:41.673Z,101.27
2019-02-02T06:10:15.613Z,102.90
2019-02-02T06:10:48.636Z,97.72
2019-02-02T06:11:23.210Z,104.00
2019-02-02T06:11:56.169Z,105.10
2019-02-02T06:12:29.162Z,102.47
2019-02-02T06:13:02.293Z,95.85
2019-02-02T06:13:35.573Z,100.20
2019-02-02T06:14:10.364Z,97.82
2019-02-02T06:14:43.211Z,105.07
2019-02-02T06:15:16.569Z,98.00
2019-02-02T06:15:49.630Z,104.03
2019-02-02T06:16:22.737Z,103.87
2019-02-02T06:16:55.908Z,104.67
2019-02-02T06:17:28.927Z,99.37
2019-02-02T06:18:02.184Z,102.22
2019-02-02T06:18:35.168Z,103.27
2019-02-02T06:19:08.210Z,108.10
2019-02-02T06:19:41.281Z,108.97
2019-02-02T06:20:14.807Z,110.95
2019-02-02T06:20:47.745Z,99.45
2019-02-02T06:21:20.787Z,100.35
2019-02-02T06:21:53.861Z,108.50
2019-02-02T06:22:27.278Z,108.70
2019-02-02T06:23:00.340Z,104.67
2019-02-02T06:23:33.241Z,102.80
2019-02-02T06:24:06.434Z,111.62
2019-02-02T06:24:39.473Z,108.32
2019-02-02T06:25:12.796Z,115.62
2019-02-02T06:25:45.827Z,103.40
2019-02-02T06:26:19.021Z,115.62
2019-02-02T06:26:52.121Z,106.35
2019-02-02T06:27:26.563Z,108.52
2019-02-02T06:27:59.699Z,110.57
2019-02-02T06:28:32.741Z,108.05
2019-02-02T06:29:06.761Z,114.75
2019-02-02T06:29:40.010Z,108.97
2019-02-02T06:30:16.041Z,116.00
2019-02-02T06:30:49.165Z,115.42
2019-02-02T06:31:22.234Z,110.25
2019-02-02T06:31:55.700Z,110.68
2019-02-02T06:32:30.421Z,108.70
2019-02-02T06:33:03.908Z,101.07
2019-02-02T06:33:37.043Z,114.70
2019-02-02T06:34:10.173Z,97.27
2019-02-02T06:34:43.305Z,95.28
2019-02-02T06:35:16.551Z,98.92
2019-02-02T06:35:49.779Z,96.40
2019-02-02T06:36:22.930Z,104.17
2019-02-02T06:36:55.996Z,99.55
2019-02-02T06:37:29.059Z,104.45
2019-02-02T06:38:03.653Z,98.90
2019-02-02T06:38:36.641Z,101.95
2019-02-02T06:39:09.891Z,107.83
2019-02-02T06:39:42.967Z,108.85
2019-02-02T06:40:16.115Z,103.78
2019-02-02T06:40:49.245Z,116.88
2019-02-02T06:41:22.379Z,112.08
2019-02-02T06:41:55.527Z,93.87
2019-02-02T06:42:28.590Z,97.42
2019-02-02T06:43:01.573Z,94.58
2019-02-02T06:43:34.763Z,106.43
2019-02-02T06:44:07.841Z,101.70
2019-02-02T06:44:40.807Z,95.77
2019-02-02T06:45:28.509Z,99.30
2019-02-02T06:46:01.423Z,98.58
2019-02-02T06:46:43.317Z,101.33
2019-02-02T06:47:09.363Z,101.95
2019-02-02T06:47:42.488Z,103.10
2019-02-02T06:48:15.587Z,102.12
2019-02-02T06:48:48.497Z,91.95
2019-02-02T06:49:21.416Z,95.72
2019-02-02T06:49:54.391Z,96.28
2019-02-02T06:50:27.668Z,101.80
2019-02-02T06:51:00.565Z,104.92
2019-02-02T06:51:33.780Z,98.75
2019-02-02T06:52:06.779Z,92.92
2019-02-02T06:52:39.874Z,88.47
2019-02-02T06:53:12.998Z,86.82
2019-02-02T06:53:46.242Z,91.75
2019-02-02T06:54:19.213Z,97.50
2019-02-02T06:54:52.243Z,86.85
2019-02-02T06:55:25.549Z,101.62
2019-02-02T06:55:58.572Z,105.80
2019-02-02T06:56:31.656Z,87.00
2019-02-02T06:57:04.965Z,87.85
2019-02-02T06:57:38.193Z,95.57
2019-02-02T06:58:11.215Z,96.15
2019-02-02T06:58:44.289Z,100.27
2019-02-02T06:59:17.233Z,91.97
2019-02-02T06:59:50.251Z,107.52
2019-02-02T07:00:26.544Z,112.45
2019-02-02T07:01:00.396Z,107.72
2019-02-02T07:01:33.467Z,105.32
2019-02-02T07:02:06.439Z,107.20